Time;durP1;ratioP1;P1;durP2;ratioP2;P2;SDS_P1;SDS_P2;PMS_P1;PMS_P2;Temp;Humidity;BMP_temperature;BMP_pressure;BME280_temperature;BME280_humidity;BME280_pressure;Samples;Min_cycle;Max_cycle;Signal;HPM_P1;HPM_P2
2023/04/18 00:01:37;;;;;;;0.90;0.90;;;18.00;66.50;;;;;;4994040;28;20117;-74
2023/04/18 00:04:03;;;;;;;0.82;0.82;;;18.00;66.50;;;;;;4993966;28;20038;-74
2023/04/18 00:06:30;;;;;;;1.20;1.20;;;17.90;66.50;;;;;;4993297;28;20030;-74
2023/04/18 00:08:56;;;;;;;1.25;1.00;;;18.00;66.50;;;;;;4976499;28;20029;-74
2023/04/18 00:11:21;;;;;;;0.88;0.88;;;17.90;66.50;;;;;;4993203;28;20026;-74
2023/04/18 00:13:47;;;;;;;1.33;1.30;;;17.90;67.20;;;;;;4993481;28;20503;-74
2023/04/18 00:16:12;;;;;;;1.00;1.00;;;17.90;66.50;;;;;;4993874;28;20050;-74
2023/04/18 00:18:38;;;;;;;0.85;0.85;;;17.90;66.40;;;;;;4976354;28;20398;-74
2023/04/18 00:21:05;;;;;;;1.38;1.23;;;17.90;66.50;;;;;;4993981;28;20081;-74
2023/04/18 00:23:33;;;;;;;1.02;1.02;;;17.90;66.40;;;;;;4975976;28;20035;-74
2023/04/18 00:25:58;;;;;;;1.10;1.10;;;17.90;67.20;;;;;;4993586;28;20027;-73
2023/04/18 00:28:24;;;;;;;1.38;1.27;;;17.90;66.50;;;;;;4992930;28;20031;-74
2023/04/18 00:30:50;;;;;;;1.30;1.30;;;17.90;66.50;;;;;;4993933;28;20026;-74
2023/04/18 00:33:15;;;;;;;0.90;0.90;;;17.90;66.50;;;;;;4961664;28;20463;-74
2023/04/18 00:35:41;;;;;;;1.25;1.23;;;17.90;66.50;;;;;;4964625;28;20096;-74
2023/04/18 00:38:07;;;;;;;1.15;1.08;;;17.90;66.40;;;;;;4993661;28;20042;-74
2023/04/18 00:40:32;;;;;;;0.90;0.90;;;17.90;66.50;;;;;;4993180;28;20018;-74
2023/04/18 00:42:58;;;;;;;1.02;1.02;;;17.90;66.50;;;;;;4957924;28;21616;-74
2023/04/18 00:45:24;;;;;;;1.20;1.20;;;17.90;66.50;;;;;;4993382;28;20404;-74
2023/04/18 00:47:49;;;;;;;1.33;1.30;;;17.90;66.50;;;;;;4964713;28;20026;-74
2023/04/18 00:50:15;;;;;;;1.92;1.10;;;17.90;66.50;;;;;;4980134;28;20034;-74
2023/04/18 00:52:41;;;;;;;1.23;1.23;;;17.80;66.50;;;;;;4963632;28;20026;-74
2023/04/18 00:55:07;;;;;;;1.23;1.20;;;17.80;66.40;;;;;;4960383;28;20022;-74
2023/04/18 00:57:33;;;;;;;1.20;1.20;;;17.80;66.50;;;;;;4974454;28;20037;-74
2023/04/18 01:00:07;;;;;;;1.20;1.20;;;17.80;66.40;;;;;;4994248;28;20075;-74
2023/04/18 01:02:32;;;;;;;;;;;17.80;66.50;;;;;;4978318;28;20153;-74
2023/04/18 01:04:58;;;;;;;1.00;1.00;;;17.80;66.50;;;;;;4992510;28;20004;-74
2023/04/18 01:07:25;;;;;;;1.02;1.02;;;17.80;66.50;;;;;;4978619;28;20026;-74
2023/04/18 01:09:51;;;;;;;1.15;1.15;;;17.80;66.50;;;;;;4971036;28;20034;-74
2023/04/18 01:12:16;;;;;;;1.05;1.05;;;17.80;66.60;;;;;;5007956;28;20019;-74
2023/04/18 01:14:42;;;;;;;1.17;1.17;;;17.80;66.50;;;;;;4964179;28;20045;-74
2023/04/18 01:17:09;;;;;;;1.15;1.15;;;17.80;66.40;;;;;;4979388;28;20483;-74
2023/04/18 01:19:40;;;;;;;1.08;1.08;;;17.80;66.50;;;;;;4979283;28;20569;-74
2023/04/18 01:22:06;;;;;;;1.40;1.40;;;17.80;66.50;;;;;;4976284;28;20030;-74
2023/04/18 01:24:32;;;;;;;1.45;1.45;;;17.80;66.50;;;;;;4992130;28;20058;-74
2023/04/18 01:26:57;;;;;;;1.75;1.65;;;17.80;66.50;;;;;;4992865;28;20030;-74
2023/04/18 01:29:26;;;;;;;1.45;1.35;;;17.80;67.40;;;;;;4979166;28;20026;-74
2023/04/18 01:31:51;;;;;;;1.10;1.10;;;17.80;66.60;;;;;;4959999;28;20038;-74
2023/04/18 01:34:17;;;;;;;1.27;1.27;;;17.80;66.50;;;;;;4991888;28;20038;-74
2023/04/18 01:36:43;;;;;;;1.90;1.80;;;17.80;66.60;;;;;;4958981;28;20479;-74
2023/04/18 01:39:09;;;;;;;1.48;1.42;;;17.80;66.60;;;;;;4977298;28;20105;-74
2023/04/18 01:41:35;;;;;;;1.20;1.20;;;17.70;66.50;;;;;;4980099;28;20499;-74
2023/04/18 01:44:00;;;;;;;1.50;1.40;;;17.80;66.60;;;;;;4963934;28;20034;-74
2023/04/18 01:46:27;;;;;;;1.42;1.40;;;17.80;67.40;;;;;;4986366;28;20486;-74
2023/04/18 01:48:52;;;;;;;1.30;1.30;;;17.70;66.50;;;;;;4991642;28;20033;-74
2023/04/18 01:51:18;;;;;;;1.20;1.20;;;17.70;66.50;;;;;;4992162;28;20054;-74
2023/04/18 01:53:43;;;;;;;1.52;1.50;;;17.70;66.60;;;;;;4993185;28;20023;-74
2023/04/18 01:56:09;;;;;;;1.30;1.30;;;17.70;66.50;;;;;;4975230;28;20034;-74
2023/04/18 01:58:35;;;;;;;1.40;1.40;;;17.70;67.30;;;;;;4978214;28;20046;-74
2023/04/18 02:01:01;;;;;;;1.40;1.40;;;17.70;66.50;;;;;;4991474;28;20034;-74
2023/04/18 02:03:26;;;;;;;1.50;1.40;;;17.70;66.50;;;;;;4967076;28;20920;-73
2023/04/18 02:05:52;;;;;;;1.48;1.48;;;17.70;66.50;;;;;;4952537;29;20496;-73
2023/04/18 02:08:17;;;;;;;1.30;1.30;;;17.70;66.50;;;;;;4953012;29;20027;-74
2023/04/18 02:10:43;;;;;;;1.50;1.50;;;17.70;66.50;;;;;;4952911;28;20051;-74
2023/04/18 02:13:09;;;;;;;1.52;1.50;;;17.70;66.50;;;;;;4951870;28;20397;-74
2023/04/18 02:15:34;;;;;;;1.70;1.60;;;17.70;66.50;;;;;;4953290;28;20062;-74
2023/04/18 02:18:00;;;;;;;1.38;1.38;;;17.70;66.50;;;;;;4951987;28;20023;-74
2023/04/18 02:20:27;;;;;;;1.30;1.30;;;17.70;66.50;;;;;;4946540;28;20119;-74
2023/04/18 02:22:53;;;;;;;1.42;1.40;;;17.70;67.30;;;;;;4930865;29;20031;-74
2023/04/18 02:25:22;;;;;;;1.58;1.58;;;17.70;66.50;;;;;;4967552;28;20099;-74
2023/04/18 02:27:48;;;;;;;1.80;1.70;;;17.70;66.50;;;;;;4948296;29;20028;-74
2023/04/18 02:30:13;;;;;;;1.90;1.80;;;17.70;66.40;;;;;;4952993;28;20507;-74
2023/04/18 02:32:39;;;;;;;1.80;1.70;;;17.70;66.40;;;;;;4953166;28;20019;-74
2023/04/18 02:35:05;;;;;;;1.83;1.73;;;17.70;66.50;;;;;;4950710;29;20058;-74
2023/04/18 02:37:30;;;;;;;1.60;1.60;;;17.70;66.50;;;;;;4951215;28;20023;-74
2023/04/18 02:39:56;;;;;;;1.83;1.73;;;17.60;66.50;;;;;;4967510;28;20035;-74
2023/04/18 02:42:22;;;;;;;1.50;1.50;;;17.60;66.40;;;;;;4950059;28;20074;-74
2023/04/18 02:44:47;;;;;;;1.90;1.80;;;17.70;66.40;;;;;;4949289;28;20046;-73
2023/04/18 02:47:13;;;;;;;1.50;1.50;;;17.60;66.40;;;;;;4951291;29;20087;-74
2023/04/18 02:49:38;;;;;;;2.10;2.00;;;17.60;66.40;;;;;;4950189;28;20027;-74
2023/04/18 02:52:04;;;;;;;2.00;1.90;;;17.60;66.30;;;;;;4951933;29;20042;-74
2023/04/18 02:54:29;;;;;;;1.60;1.50;;;17.60;66.30;;;;;;4945925;29;20459;-74
2023/04/18 02:56:55;;;;;;;2.05;1.95;;;17.70;66.40;;;;;;4950662;29;20039;-74
2023/04/18 02:59:21;;;;;;;2.03;1.92;;;17.60;66.40;;;;;;4946794;29;20441;-73
2023/04/18 03:01:46;;;;;;;2.42;2.28;;;17.60;66.40;;;;;;4949125;28;20023;-73
2023/04/18 03:04:12;;;;;;;1.73;1.65;;;17.60;66.40;;;;;;4996446;28;20487;-73
2023/04/18 03:06:38;;;;;;;2.00;1.90;;;17.60;66.40;;;;;;4991246;28;20300;-73
2023/04/18 03:09:03;;;;;;;2.65;2.55;;;17.60;66.40;;;;;;4991697;28;20395;-73
2023/04/18 03:11:29;;;;;;;1.95;1.85;;;17.60;66.40;;;;;;4962136;28;20031;-73
2023/04/18 03:13:54;;;;;;;2.13;2.03;;;17.60;66.40;;;;;;4990730;28;20038;-73
2023/04/18 03:16:20;;;;;;;1.88;1.77;;;17.60;66.40;;;;;;4990995;28;20030;-74
2023/04/18 03:18:46;;;;;;;2.03;1.92;;;17.60;66.30;;;;;;4973703;28;20026;-74
2023/04/18 03:21:12;;;;;;;2.00;1.90;;;17.60;66.30;;;;;;4991180;28;20431;-73
2023/04/18 03:23:38;;;;;;;2.10;2.00;;;17.60;66.20;;;;;;4991069;28;20034;-74
2023/04/18 03:26:07;;;;;;;2.17;2.08;;;17.60;66.20;;;;;;5010057;28;20034;-73
2023/04/18 03:28:33;;;;;;;2.13;2.03;;;17.60;66.30;;;;;;4999246;28;20015;-73
2023/04/18 03:30:59;;;;;;;2.33;2.13;;;17.60;66.30;;;;;;4991967;28;20022;-73
2023/04/18 03:33:24;;;;;;;2.10;2.00;;;17.60;66.40;;;;;;4992059;28;20054;-73
2023/04/18 03:35:50;;;;;;;1.70;1.60;;;17.60;66.20;;;;;;4994336;28;20030;-74
2023/04/18 03:38:15;;;;;;;2.10;2.00;;;17.60;66.20;;;;;;4992564;28;20065;-74
2023/04/18 03:40:43;;;;;;;2.50;2.40;;;17.60;66.20;;;;;;5002732;28;20522;-74
2023/04/18 03:43:09;;;;;;;2.35;2.25;;;17.60;66.20;;;;;;4973803;28;20039;-74
2023/04/18 03:45:34;;;;;;;2.60;2.50;;;17.60;66.20;;;;;;4992428;28;20022;-73
2023/04/18 03:48:00;;;;;;;2.33;2.22;;;17.60;66.30;;;;;;4977230;28;20507;-73
2023/04/18 03:50:26;;;;;;;2.47;2.38;;;17.60;66.20;;;;;;4993211;28;20098;-73
2023/04/18 03:52:51;;;;;;;2.30;2.20;;;17.60;66.20;;;;;;4992659;28;20034;-73
2023/04/18 03:55:18;;;;;;;2.58;2.47;;;17.60;66.10;;;;;;4992522;28;20098;-73
2023/04/18 03:57:44;;;;;;;2.63;2.53;;;17.60;66.20;;;;;;4991655;28;20053;-73
2023/04/18 04:00:11;;;;;;;2.35;2.25;;;17.50;66.20;;;;;;4987659;28;20483;-73
2023/04/18 04:02:37;;;;;;;2.70;2.60;;;17.60;66.20;;;;;;4993034;28;20046;-73
2023/04/18 04:05:03;;;;;;;2.33;2.22;;;17.60;66.20;;;;;;4992308;28;20041;-73
2023/04/18 04:07:30;;;;;;;2.95;2.85;;;17.60;66.10;;;;;;4992398;28;20102;-73
2023/04/18 04:09:57;;;;;;;3.10;3.00;;;17.50;66.10;;;;;;4992728;28;20030;-73
2023/04/18 04:12:23;;;;;;;3.03;2.90;;;17.50;66.10;;;;;;4975403;28;20515;-73
2023/04/18 04:14:49;;;;;;;2.67;2.58;;;17.50;66.20;;;;;;4963264;28;20023;-74
2023/04/18 04:17:14;;;;;;;2.50;2.40;;;17.60;66.30;;;;;;4991246;28;20030;-73
2023/04/18 04:19:40;;;;;;;2.75;2.65;;;17.50;66.30;;;;;;4980889;28;20036;-74
2023/04/18 04:22:05;;;;;;;3.20;3.10;;;17.50;66.30;;;;;;4981935;28;20026;-73
2023/04/18 04:24:32;;;;;;;2.47;2.35;;;17.50;66.30;;;;;;4992310;28;20688;-73
2023/04/18 04:26:58;;;;;;;2.90;2.80;;;17.50;66.30;;;;;;4976159;28;20018;-73
2023/04/18 04:29:25;;;;;;;2.70;2.60;;;17.50;66.30;;;;;;4990122;28;20479;-73
2023/04/18 04:31:50;;;;;;;3.00;2.90;;;17.50;66.20;;;;;;4992384;28;20032;-73
2023/04/18 04:34:16;;;;;;;2.70;2.60;;;17.50;66.20;;;;;;4991597;28;20030;-73
2023/04/18 04:36:43;;;;;;;2.80;2.70;;;17.50;66.30;;;;;;4991498;28;20034;-73
2023/04/18 04:39:10;;;;;;;2.75;2.65;;;17.50;66.30;;;;;;4958582;28;20054;-73
2023/04/18 04:41:38;;;;;;;3.00;2.90;;;17.50;66.20;;;;;;4992371;28;20090;-73
2023/04/18 04:44:03;;;;;;;3.03;2.88;;;17.50;66.30;;;;;;4990686;28;20035;-73
2023/04/18 04:46:29;;;;;;;2.75;2.65;;;17.50;67.10;;;;;;4990647;28;20058;-73
2023/04/18 04:48:55;;;;;;;3.28;3.15;;;17.50;66.30;;;;;;4991962;28;20097;-73
2023/04/18 04:51:21;;;;;;;3.90;3.70;;;17.50;66.40;;;;;;4992016;28;20503;-73
2023/04/18 04:53:47;;;;;;;2.90;2.80;;;17.50;66.30;;;;;;4991439;28;20033;-73
2023/04/18 04:56:12;;;;;;;2.63;2.53;;;17.50;66.30;;;;;;4991062;28;20495;-74
2023/04/18 04:58:38;;;;;;;3.10;3.00;;;17.50;66.30;;;;;;4989567;28;20034;-74
2023/04/18 05:01:06;;;;;;;2.95;2.85;;;17.50;66.20;;;;;;4991888;28;20061;-73
2023/04/18 05:03:32;;;;;;;3.03;2.92;;;17.50;66.30;;;;;;4992508;28;20049;-73
2023/04/18 05:05:58;;;;;;;2.85;2.75;;;17.50;66.30;;;;;;4976371;28;20030;-73
2023/04/18 05:08:23;;;;;;;3.10;2.95;;;17.50;66.30;;;;;;4992621;28;20234;-73
2023/04/18 05:10:49;;;;;;;3.45;3.25;;;17.50;66.30;;;;;;4992444;28;20050;-73
2023/04/18 05:13:14;;;;;;;3.60;3.40;;;17.40;67.00;;;;;;4992126;28;20425;-73
2023/04/18 05:15:40;;;;;;;3.35;3.25;;;17.50;66.20;;;;;;4992207;28;20186;-74
2023/04/18 05:18:05;;;;;;;3.13;3.03;;;17.40;66.10;;;;;;4987639;28;20026;-73
2023/04/18 05:20:31;;;;;;;3.08;2.88;;;17.40;66.20;;;;;;4989289;28;20503;-73
2023/04/18 05:22:56;;;;;;;3.08;2.88;;;17.50;66.20;;;;;;4989456;28;20494;-73
2023/04/18 05:25:22;;;;;;;3.33;3.13;;;17.50;66.20;;;;;;5005127;28;20100;-73
2023/04/18 05:27:49;;;;;;;3.38;3.17;;;17.50;66.20;;;;;;4990813;28;20105;-73
2023/04/18 05:30:14;;;;;;;3.35;3.15;;;17.40;67.00;;;;;;4991765;28;20038;-73
2023/04/18 05:32:40;;;;;;;2.97;2.83;;;17.40;66.10;;;;;;4971524;28;20022;-75
2023/04/18 05:35:06;;;;;;;3.15;3.05;;;17.50;66.20;;;;;;4989660;28;20502;-73
2023/04/18 05:37:32;;;;;;;3.28;3.08;;;17.50;66.20;;;;;;4992209;28;20029;-74
2023/04/18 05:39:57;;;;;;;3.35;3.25;;;17.60;65.80;;;;;;4958954;28;20399;-73
2023/04/18 05:42:23;;;;;;;3.78;3.58;;;17.60;65.90;;;;;;4975649;28;20557;-75
2023/04/18 05:44:48;;;;;;;4.13;3.83;;;17.60;65.90;;;;;;4979928;28;20031;-76
2023/04/18 05:47:14;;;;;;;3.50;3.30;;;17.70;66.50;;;;;;4978526;28;20106;-76
2023/04/18 05:49:40;;;;;;;3.70;3.50;;;17.60;66.80;;;;;;4995240;28;20026;-78
2023/04/18 05:52:05;;;;;;;3.70;3.50;;;17.60;66.90;;;;;;4958628;28;20081;-76
2023/04/18 05:54:31;;;;;;;4.35;4.05;;;17.60;67.60;;;;;;4990205;28;20030;-76
2023/04/18 05:56:57;;;;;;;4.53;3.85;;;17.60;68.40;;;;;;4975183;28;20077;-76
2023/04/18 05:59:22;;;;;;;3.83;3.63;;;17.60;68.10;;;;;;4978393;28;20023;-78
2023/04/18 06:01:48;;;;;;;4.40;4.10;;;17.60;68.40;;;;;;4978464;28;20483;-76
2023/04/18 06:04:14;;;;;;;4.78;4.47;;;17.60;68.40;;;;;;4991100;28;20022;-76
2023/04/18 06:06:40;;;;;;;3.80;3.60;;;17.60;68.80;;;;;;4988632;28;20030;-77
2023/04/18 06:09:06;;;;;;;4.60;4.22;;;17.50;68.90;;;;;;4965978;28;20015;-79
2023/04/18 06:11:34;;;;;;;5.80;5.40;;;17.60;69.40;;;;;;4978869;28;20491;-77
2023/04/18 06:14:00;;;;;;;7.25;6.72;;;17.60;69.20;;;;;;4991729;28;20045;-76
2023/04/18 06:16:25;;;;;;;7.22;6.53;;;17.60;70.20;;;;;;4946027;28;20030;-78
2023/04/18 06:18:51;;;;;;;12.25;8.60;;;17.60;70.20;;;;;;4991509;28;20042;-76
2023/04/18 06:21:16;;;;;;;13.45;11.68;;;17.50;67.30;;;;;;4959513;28;20030;-75
2023/04/18 06:23:42;;;;;;;11.38;10.38;;;17.60;68.50;;;;;;4944295;28;20031;-78
2023/04/18 06:26:08;;;;;;;10.38;9.30;;;17.50;68.50;;;;;;4988890;28;20023;-78
2023/04/18 06:28:34;;;;;;;9.95;8.95;;;17.50;69.30;;;;;;4976354;28;20030;-78
2023/04/18 06:30:59;;;;;;;10.07;9.07;;;17.50;68.70;;;;;;4974591;28;20030;-80
2023/04/18 06:33:25;;;;;;;8.70;7.75;;;17.50;69.30;;;;;;4957314;28;20657;-78
2023/04/18 06:35:51;;;;;;;7.07;6.45;;;17.50;69.80;;;;;;4955707;28;20034;-77
2023/04/18 06:38:16;;;;;;;6.97;6.38;;;17.60;69.70;;;;;;4954361;28;20034;-77
2023/04/18 06:40:42;;;;;;;7.25;6.75;;;17.60;70.00;;;;;;4973816;28;20037;-78
2023/04/18 06:43:07;;;;;;;7.20;6.60;;;17.60;70.10;;;;;;4991255;28;20503;-77
2023/04/18 06:45:33;;;;;;;6.45;5.90;;;17.60;70.80;;;;;;4643792;28;10000195;-76
2023/04/18 06:47:58;;;;;;;6.95;6.28;;;17.60;70.50;;;;;;4975094;28;20085;-77
2023/04/18 06:50:28;;;;;;;8.10;5.65;;;17.60;70.50;;;;;;4970665;28;20066;-77
2023/04/18 06:52:53;;;;;;;6.45;5.85;;;17.60;70.50;;;;;;4974018;28;20073;-77
2023/04/18 06:55:19;;;;;;;6.65;6.25;;;17.60;71.00;;;;;;4972387;28;20034;-77
2023/04/18 06:57:45;;;;;;;5.80;5.40;;;17.60;69.30;;;;;;4986079;28;20026;-77
2023/04/18 07:00:11;;;;;;;5.10;4.80;;;17.60;68.90;;;;;;4987702;28;20384;-77
2023/04/18 07:02:37;;;;;;;5.78;5.30;;;17.70;69.70;;;;;;4990028;28;20097;-76
2023/04/18 07:05:02;;;;;;;6.38;5.88;;;17.60;69.20;;;;;;4964839;28;20613;-77
2023/04/18 07:07:28;;;;;;;6.18;5.57;;;17.70;70.00;;;;;;4978781;28;20110;-76
2023/04/18 07:09:54;;;;;;;8.00;7.20;;;17.60;70.60;;;;;;4995252;28;20019;-76
2023/04/18 07:12:19;;;;;;;7.47;6.97;;;17.60;70.10;;;;;;4995062;28;20060;-79
2023/04/18 07:14:45;;;;;;;7.53;7.00;;;17.60;71.00;;;;;;4982539;28;20058;-77
2023/04/18 07:17:10;;;;;;;7.78;7.07;;;17.60;71.40;;;;;;4994417;28;20431;-78
2023/04/18 07:19:36;;;;;;;7.13;6.63;;;17.60;71.50;;;;;;4992553;28;20038;-77
2023/04/18 07:22:01;;;;;;;7.10;6.50;;;17.60;71.30;;;;;;4994312;28;20038;-77
2023/04/18 07:24:27;;;;;;;7.38;6.68;;;17.60;71.20;;;;;;4977700;28;20062;-77
2023/04/18 07:26:53;;;;;;;7.25;6.65;;;17.70;71.20;;;;;;4982712;28;20022;-77
2023/04/18 07:29:18;;;;;;;7.43;6.90;;;17.60;71.10;;;;;;4957990;28;20364;-77
2023/04/18 07:31:47;;;;;;;6.90;6.40;;;17.60;71.00;;;;;;4981741;28;20026;-77
2023/04/18 07:34:13;;;;;;;6.50;6.10;;;17.60;70.90;;;;;;4994417;28;20026;-78
2023/04/18 07:36:39;;;;;;;6.75;6.25;;;17.70;70.90;;;;;;4994669;28;20023;-77
2023/04/18 07:39:04;;;;;;;7.13;6.63;;;17.70;70.70;;;;;;4980903;28;20403;-77
2023/04/18 07:41:30;;;;;;;6.75;6.07;;;17.70;70.60;;;;;;4982152;28;20026;-77
2023/04/18 07:43:55;;;;;;;7.13;6.53;;;17.70;71.30;;;;;;4994419;28;20436;-77
2023/04/18 07:46:21;;;;;;;6.90;6.30;;;17.70;70.60;;;;;;4994940;28;20022;-77
2023/04/18 07:48:47;;;;;;;6.28;5.70;;;17.70;70.60;;;;;;4977199;28;20142;-77
2023/04/18 07:51:12;;;;;;;6.72;6.22;;;17.70;70.70;;;;;;4994708;28;20038;-77
2023/04/18 07:53:39;;;;;;;6.45;5.95;;;17.70;70.60;;;;;;4995041;28;20391;-77
2023/04/18 07:56:05;;;;;;;6.75;6.15;;;17.70;70.70;;;;;;4994393;28;20027;-77
2023/04/18 07:58:32;;;;;;;6.25;5.85;;;17.70;70.70;;;;;;4993327;28;20034;-76
2023/04/18 08:00:58;;;;;;;6.47;6.07;;;17.70;70.60;;;;;;4973415;28;20031;-77
2023/04/18 08:03:24;;;;;;;6.75;6.10;;;17.70;70.70;;;;;;4993924;28;20058;-77
2023/04/18 08:05:50;;;;;;;6.45;5.93;;;17.70;70.70;;;;;;4994916;28;20443;-77
2023/04/18 08:08:16;;;;;;;6.20;5.80;;;17.70;70.60;;;;;;4993914;28;20026;-77
2023/04/18 08:10:41;;;;;;;5.40;5.10;;;17.70;70.60;;;;;;4976841;28;20035;-77
2023/04/18 08:13:07;;;;;;;5.68;5.28;;;17.80;70.70;;;;;;4994091;28;20054;-77
2023/04/18 08:15:34;;;;;;;6.47;6.07;;;17.70;70.70;;;;;;4992992;28;20043;-77
2023/04/18 08:17:59;;;;;;;7.05;6.60;;;17.80;70.70;;;;;;4994661;28;20081;-77
2023/04/18 08:20:25;;;;;;;6.00;5.60;;;17.80;70.50;;;;;;4993528;28;20034;-77
2023/04/18 08:22:50;;;;;;;7.45;6.32;;;17.80;70.50;;;;;;4993517;28;20455;-77
2023/04/18 08:25:16;;;;;;;6.40;5.93;;;17.80;71.30;;;;;;4993619;28;20081;-76
2023/04/18 08:27:42;;;;;;;6.60;6.22;;;17.80;70.60;;;;;;4973128;28;20122;-77
2023/04/18 08:30:08;;;;;;;6.03;5.57;;;17.90;70.70;;;;;;4994169;28;20121;-77
2023/04/18 08:32:34;;;;;;;6.40;5.93;;;17.90;70.70;;;;;;4993314;28;20100;-76
2023/04/18 08:35:00;;;;;;;6.20;5.80;;;17.90;70.80;;;;;;4979118;28;20077;-77
2023/04/18 08:37:26;;;;;;;5.68;5.32;;;17.90;70.90;;;;;;4975952;28;20034;-76
2023/04/18 08:39:52;;;;;;;6.43;6.03;;;17.90;70.90;;;;;;4993620;28;20126;-76
2023/04/18 08:42:18;;;;;;;5.45;5.15;;;17.90;71.00;;;;;;4993707;28;20113;-76
2023/04/18 08:44:45;;;;;;;5.32;5.03;;;17.90;71.00;;;;;;4981403;28;20064;-76
2023/04/18 08:47:11;;;;;;;5.28;5.00;;;17.90;71.10;;;;;;4993308;28;20440;-77
2023/04/18 08:49:37;;;;;;;6.80;6.40;;;17.90;71.00;;;;;;4992712;28;20111;-77
2023/04/18 08:52:10;;;;;;;6.63;6.05;;;17.90;71.00;;;;;;4993271;28;20101;-77
2023/04/18 08:54:37;;;;;;;5.70;5.20;;;18.00;70.90;;;;;;4961928;28;20030;-76
2023/04/18 08:57:06;;;;;;;6.03;5.45;;;18.00;70.90;;;;;;4993705;28;20113;-76
2023/04/18 08:59:34;;;;;;;6.13;5.63;;;18.00;70.70;;;;;;4992635;28;20034;-76
2023/04/18 09:02:00;;;;;;;5.90;5.38;;;18.00;70.40;;;;;;4992991;28;20034;-76
2023/04/18 09:04:33;;;;;;;6.07;5.68;;;18.00;70.40;;;;;;4992698;28;20041;-76
2023/04/18 09:06:59;;;;;;;5.25;4.95;;;18.10;70.30;;;;;;4992768;28;20052;-76
2023/04/18 09:09:26;;;;;;;5.18;4.88;;;18.10;70.40;;;;;;4992743;28;20042;-76
2023/04/18 09:12:06;;;;;;;5.32;5.03;;;18.10;70.20;;;;;;4993891;28;20384;-76
2023/04/18 09:14:32;;;;;;;5.45;5.05;;;18.10;69.90;;;;;;4977383;28;20033;-76
2023/04/18 09:16:57;;;;;;;4.63;4.43;;;18.10;69.60;;;;;;4992610;28;20038;-76
2023/04/18 09:19:23;;;;;;;5.43;5.13;;;18.10;69.50;;;;;;4974676;28;20026;-76
2023/04/18 09:22:03;;;;;;;5.03;4.72;;;18.10;69.40;;;;;;4992838;28;20565;-76
2023/04/18 09:24:29;;;;;;;5.53;5.13;;;18.20;69.20;;;;;;4992727;28;20043;-76
2023/04/18 09:26:55;;;;;;;5.60;5.30;;;18.20;69.10;;;;;;4980039;28;20022;-76
2023/04/18 09:29:41;;;;;;;5.32;5.03;;;18.20;68.90;;;;;;4977209;28;20100;-76
2023/04/18 09:32:06;;;;;;;5.07;4.78;;;18.30;68.80;;;;;;4979380;28;20045;-77
2023/04/18 09:34:33;;;;;;;5.05;4.82;;;18.20;68.70;;;;;;4979055;28;20491;-76
2023/04/18 09:37:08;;;;;;;5.07;4.78;;;18.30;68.70;;;;;;4975198;28;20049;-76
2023/04/18 09:39:38;;;;;;;4.53;4.32;;;18.30;68.60;;;;;;4978245;28;20022;-76
2023/04/18 09:42:04;;;;;;;4.88;4.50;;;18.30;68.50;;;;;;4992733;28;20490;-76
2023/04/18 09:44:30;;;;;;;4.07;3.88;;;18.30;68.30;;;;;;4979931;28;20022;-76
2023/04/18 09:46:56;;;;;;;4.45;4.15;;;18.30;68.30;;;;;;4962977;28;20034;-76
2023/04/18 09:49:21;;;;;;;5.22;4.93;;;18.30;68.20;;;;;;4992167;28;20026;-77
2023/04/18 09:51:47;;;;;;;4.95;4.65;;;18.40;68.30;;;;;;4941546;28;20034;-76
2023/04/18 09:54:16;;;;;;;4.50;4.20;;;18.40;68.20;;;;;;4945298;28;20409;-76
2023/04/18 09:56:43;;;;;;;4.88;4.57;;;18.40;68.00;;;;;;4991036;28;20495;-76
2023/04/18 09:59:08;;;;;;;4.65;4.35;;;18.40;68.10;;;;;;4942146;28;20038;-76
2023/04/18 10:01:34;;;;;;;4.53;4.22;;;18.40;68.10;;;;;;4974437;28;20034;-76
2023/04/18 10:04:05;;;;;;;4.88;4.68;;;18.40;68.00;;;;;;4974907;28;20050;-77
2023/04/18 10:06:32;;;;;;;4.38;4.18;;;18.40;68.00;;;;;;4992313;28;20372;-76
2023/04/18 10:08:58;;;;;;;4.38;4.18;;;18.40;67.90;;;;;;4983551;28;20034;-76
2023/04/18 10:11:24;;;;;;;5.15;4.85;;;18.40;67.90;;;;;;4971782;28;20031;-76
2023/04/18 10:13:49;;;;;;;4.65;4.45;;;18.40;67.80;;;;;;4990768;28;20026;-78
2023/04/18 10:16:15;;;;;;;4.65;4.35;;;18.50;67.80;;;;;;4946867;28;20041;-78
2023/04/18 10:18:42;;;;;;;4.05;3.72;;;18.50;67.70;;;;;;4958205;28;20081;-77
2023/04/18 10:21:07;;;;;;;4.63;4.43;;;18.50;67.60;;;;;;4963353;28;20085;-78
2023/04/18 10:23:34;;;;;;;4.40;4.20;;;18.50;67.60;;;;;;4966033;28;20034;-78
2023/04/18 10:26:01;;;;;;;4.68;4.47;;;18.50;67.50;;;;;;4987668;28;20443;-77
2023/04/18 10:28:27;;;;;;;4.60;4.30;;;18.50;67.50;;;;;;4977314;28;20019;-78
2023/04/18 10:31:02;;;;;;;4.93;4.63;;;18.50;67.50;;;;;;4970864;28;20026;-77
2023/04/18 10:33:32;;;;;;;4.68;4.47;;;18.60;67.60;;;;;;4942980;28;20555;-77
2023/04/18 10:36:05;;;;;;;4.40;4.20;;;18.50;67.40;;;;;;4956553;28;20050;-78
2023/04/18 10:38:44;;;;;;;4.85;4.32;;;18.60;67.50;;;;;;4991725;28;20117;-78
2023/04/18 10:41:29;;;;;;;4.32;4.13;;;18.50;67.50;;;;;;4946126;28;20117;-77
2023/04/18 10:44:13;;;;;;;4.22;4.03;;;18.50;67.30;;;;;;4975242;28;20030;-77
2023/04/18 10:46:51;;;;;;;4.57;4.38;;;18.60;67.30;;;;;;4990588;28;20164;-77
2023/04/18 10:49:26;;;;;;;4.05;3.85;;;18.60;67.30;;;;;;4993057;28;20023;-77
2023/04/18 10:51:57;;;;;;;4.40;4.20;;;18.60;68.00;;;;;;4974071;28;22508;-77
2023/04/18 10:54:50;;;;;;;4.43;4.22;;;18.60;67.20;;;;;;4975194;28;20034;-76
2023/04/18 10:57:16;;;;;;;4.30;4.10;;;18.60;67.20;;;;;;5000787;28;20558;-78
2023/04/18 10:59:51;;;;;;;4.25;4.05;;;18.60;67.20;;;;;;4962904;28;20050;-76
2023/04/18 11:02:23;;;;;;;3.92;3.72;;;18.60;67.10;;;;;;4987126;28;20042;-75
2023/04/18 11:04:52;;;;;;;4.45;4.15;;;18.60;67.10;;;;;;4988398;28;20038;-75
2023/04/18 11:07:18;;;;;;;3.88;3.72;;;18.70;67.20;;;;;;4960841;28;20069;-74
2023/04/18 11:09:52;;;;;;;3.85;3.55;;;18.70;67.30;;;;;;4969880;28;20027;-74
2023/04/18 11:12:18;;;;;;;3.92;3.72;;;18.70;67.30;;;;;;4973858;28;20377;-75
2023/04/18 11:14:44;;;;;;;4.30;4.00;;;18.70;67.10;;;;;;4990390;28;20571;-76
2023/04/18 11:17:23;;;;;;;3.60;3.40;;;18.70;67.10;;;;;;4956134;28;20031;-75
2023/04/18 11:20:10;;;;;;;3.60;3.40;;;18.70;67.10;;;;;;4990375;28;20022;-76
2023/04/18 11:23:05;;;;;;;3.65;3.45;;;18.70;67.00;;;;;;4989149;28;20097;-75
2023/04/18 11:25:31;;;;;;;;;;;18.70;66.90;;;;;;4976283;28;20041;-75
2023/04/18 11:28:00;;;;;;;4.07;3.78;;;18.70;66.80;;;;;;4989288;28;20414;-76
2023/04/18 11:30:26;;;;;;;4.32;4.07;;;18.70;67.00;;;;;;4968334;28;20035;-76
2023/04/18 11:32:52;;;;;;;4.40;4.20;;;18.80;68.60;;;;;;4974422;28;20062;-75
2023/04/18 11:35:18;;;;;;;4.82;4.53;;;18.80;69.00;;;;;;4991021;28;20018;-75
2023/04/18 11:37:48;;;;;;;4.57;4.28;;;18.90;68.20;;;;;;4975633;28;20038;-76
2023/04/18 11:40:14;;;;;;;5.53;5.20;;;18.90;68.60;;;;;;4957288;28;20402;-75
2023/04/18 11:42:40;;;;;;;6.63;6.03;;;18.90;69.10;;;;;;4970834;28;20499;-75
2023/04/18 11:45:12;;;;;;;7.53;6.75;;;18.90;71.30;;;;;;4959656;28;20128;-75
2023/04/18 11:47:38;;;;;;;11.57;7.55;;;18.90;71.10;;;;;;4973336;28;20033;-74
2023/04/18 11:50:05;;;;;;;9.77;7.00;;;18.90;72.10;;;;;;4960842;28;20031;-75
2023/04/18 11:52:31;;;;;;;9.95;7.88;;;18.90;71.10;;;;;;4974178;28;20011;-76
2023/04/18 11:55:11;;;;;;;8.77;7.50;;;18.90;69.90;;;;;;4955092;28;20030;-77
2023/04/18 11:57:37;;;;;;;8.40;7.10;;;19.00;70.20;;;;;;4969093;28;20030;-75
2023/04/18 12:00:05;;;;;;;8.25;6.63;;;19.00;71.60;;;;;;4994193;28;20084;-74
2023/04/18 12:02:41;;;;;;;9.20;7.70;;;19.10;70.10;;;;;;4993515;28;20042;-76
2023/04/18 12:05:07;;;;;;;7.20;6.43;;;19.00;69.90;;;;;;4992884;28;20062;-80
2023/04/18 12:07:38;;;;;;;6.75;6.07;;;19.00;69.80;;;;;;4991213;28;20105;-80
2023/04/18 12:10:06;;;;;;;6.72;6.13;;;19.00;69.40;;;;;;4957433;28;20073;-76
2023/04/18 12:12:32;;;;;;;6.47;6.00;;;19.00;68.80;;;;;;4965028;28;20030;-80
2023/04/18 12:15:04;;;;;;;6.40;5.90;;;19.00;68.00;;;;;;4985132;28;20399;-78
2023/04/18 12:17:29;;;;;;;6.30;5.90;;;19.00;67.90;;;;;;4981515;28;20026;-79
2023/04/18 12:19:56;;;;;;;6.35;5.95;;;19.00;67.70;;;;;;4974878;28;20088;-79
2023/04/18 12:22:40;;;;;;;6.75;6.25;;;19.00;66.70;;;;;;4888183;28;10000556;-79
2023/04/18 12:25:22;;;;;;;6.15;5.57;;;19.00;65.90;;;;;;4988033;28;20466;-79
2023/04/18 12:27:48;;;;;;;9.55;6.72;;;19.00;66.00;;;;;;4989134;28;20026;-79
2023/04/18 12:30:14;;;;;;;6.07;5.68;;;18.90;66.60;;;;;;4990330;28;20102;-78
2023/04/18 12:32:40;;;;;;;6.18;5.78;;;18.90;66.40;;;;;;4990210;28;20030;-79
2023/04/18 12:35:07;;;;;;;6.50;6.10;;;18.90;66.20;;;;;;4989407;28;20027;-79
2023/04/18 12:37:32;;;;;;;7.20;6.47;;;18.90;66.20;;;;;;4968917;28;20030;-78
2023/04/18 12:39:58;;;;;;;6.75;6.15;;;19.00;65.90;;;;;;4980541;28;20022;-79
2023/04/18 12:42:23;;;;;;;5.82;5.40;;;18.90;66.10;;;;;;4971747;28;20026;-79
2023/04/18 12:44:49;;;;;;;5.82;5.43;;;18.90;65.80;;;;;;4990340;28;20052;-79
2023/04/18 12:47:15;;;;;;;7.28;6.57;;;18.90;65.90;;;;;;4988217;28;20533;-79